This demonstration page uses our WeatherBlox Daily Observations layout. Learn more.

41.55636, -103.73856

Hourly Observations for December 1, 2016

Temp ( °F °C ) Dew Point ( °F °C ) Humidity (%) Winds ( mph kmh ) Pressure ( in mb ) Visibility ( mi km ) Precip ( " mm )
12:53 am 00:53 Clear 17 -8.3 10 -12.2 74 74 NW 6 9 30 1016 10 16.0934 0 0
1:53 am 01:53 Clear 17 -8.3 9 -12.8 70 70 WNW 5 7 30.01 1016 10 16.0934 0 0
2:53 am 02:53 Clear 18 -7.8 10 -12.2 71 71 WNW 6 9 30.01 1016 10 16.0934 0 0
3:53 am 03:53 Clear 16 -8.9 9 -12.8 74 74 NW 6 9 30.03 1017 10 16.0934 0 0
4:53 am 04:53 Clear 17 -8.3 9 -12.8 70 70 NNW 5 7 30.05 1018 10 16.0934 0 0
5:53 am 05:53 Clear 15 -9.4 9 -12.8 77 77 NNW 7 11 30.08 1019 10 16.0934 0 0
6:53 am 06:53 Clear 13 -10.6 8 -13.3 81 81 WNW 5 7 30.11 1020 10 16.0934 0 0
7:53 am 07:53 Sunny 17 -8.3 11 -11.7 77 77 NNW 5 7 30.11 1020 10 16.0934 0 0
8:53 am 08:53 Sunny 22 -5.6 14 -10 71 71 WNW 7 11 30.1 1019 10 16.0934 0 0
9:53 am 09:53 Sunny 26 -3.3 14 -10 60 60 WNW 9 15 30.1 1019 10 16.0934 0 0
10:53 am 10:53 Sunny 34 1.1 17 -8.3 50 50 WNW 9 15 30.06 1018 10 16.0934 0 0
11:53 am 11:53 Sunny 39 3.9 15 -9.4 38 38 WNW 12 19 30.02 1017 10 16.0934 0 0
12:53 pm 12:53 Sunny 42 5.6 14 -10 32 32 NW 9 15 30 1016 10 16.0934 0 0
1:53 pm 13:53 Sunny 43 6.1 12 -11.1 28 28 W 10 17 29.99 1016 10 16.0934 0 0
2:53 pm 14:53 Sunny 41 5 11 -11.7 29 29 WNW 6 9 30 1016 10 16.0934 0 0
3:53 pm 15:53 Partly Cloudy 37 2.8 12 -11.1 36 36 NNW 5 7 30.03 1017 10 16.0934 0 0
4:53 pm 16:53 Mostly Clear 33 0.6 12 -11.1 42 42 Calm 30.05 1018 10 16.0934 0 0
5:53 pm 17:53 Mostly Cloudy 28 -2.2 11 -11.7 49 49 Calm 30.09 1019 10 16.0934 0 0
6:53 pm 18:53 Mostly Clear 23 -5 11 -11.7 60 60 NE 5 7 30.13 1020 10 16.0934 0 0
7:53 pm 19:53 Cloudy 22 -5.6 12 -11.1 66 66 WNW 3 6 30.13 1020 10 16.0934 0 0
8:53 pm 20:53 Clear 22 -5.6 13 -10.6 68 68 NW 7 11 30.14 1021 10 16.0934 0 0
9:53 pm 21:53 Partly Cloudy 22 -5.6 13 -10.6 68 68 NW 8 13 30.15 1021 10 16.0934 0 0
10:53 pm 22:53 Partly Cloudy 20 -6.7 14 -10 78 78 NW 7 11 30.15 1021 10 16.0934 0 0
11:53 pm 23:53 Cloudy 21 -6.1 14 -10 74 74 NNW 3 6 30.15 1021 10 16.0934 0 0

Powered by AerisWeather